sensor_id;sensor_type;location;lat;lon;timestamp;P1;durP1;ratioP1;P2;durP2;ratioP2
55539;SDS011;41384;51.418;7.286;2023-04-06T00:00:57;13.50;;;6.05;;
55539;SDS011;41384;51.418;7.286;2023-04-06T00:03:23;12.18;;;5.53;;
55539;SDS011;41384;51.418;7.286;2023-04-06T00:05:48;11.55;;;5.80;;
55539;SDS011;41384;51.418;7.286;2023-04-06T00:08:13;7.82;;;5.78;;
55539;SDS011;41384;51.418;7.286;2023-04-06T00:10:39;8.02;;;5.82;;
55539;SDS011;41384;51.418;7.286;2023-04-06T00:13:05;9.10;;;5.43;;
55539;SDS011;41384;51.418;7.286;2023-04-06T00:15:31;15.57;;;6.22;;
55539;SDS011;41384;51.418;7.286;2023-04-06T00:17:57;10.13;;;5.68;;
55539;SDS011;41384;51.418;7.286;2023-04-06T00:20:22;10.52;;;6.18;;
55539;SDS011;41384;51.418;7.286;2023-04-06T00:22:48;11.73;;;5.80;;
55539;SDS011;41384;51.418;7.286;2023-04-06T00:25:13;9.77;;;5.85;;
55539;SDS011;41384;51.418;7.286;2023-04-06T00:27:40;9.30;;;5.82;;
55539;SDS011;41384;51.418;7.286;2023-04-06T00:30:05;9.02;;;5.82;;
55539;SDS011;41384;51.418;7.286;2023-04-06T00:32:31;9.02;;;6.00;;
55539;SDS011;41384;51.418;7.286;2023-04-06T00:34:57;10.25;;;5.80;;
55539;SDS011;41384;51.418;7.286;2023-04-06T00:37:23;8.65;;;5.70;;
55539;SDS011;41384;51.418;7.286;2023-04-06T00:39:48;14.88;;;6.35;;
55539;SDS011;41384;51.418;7.286;2023-04-06T00:42:14;10.82;;;6.03;;
55539;SDS011;41384;51.418;7.286;2023-04-06T00:44:40;8.88;;;6.03;;
55539;SDS011;41384;51.418;7.286;2023-04-06T00:47:06;9.70;;;5.60;;
55539;SDS011;41384;51.418;7.286;2023-04-06T00:49:32;8.45;;;5.45;;
55539;SDS011;41384;51.418;7.286;2023-04-06T00:51:58;10.63;;;5.60;;
55539;SDS011;41384;51.418;7.286;2023-04-06T00:54:23;9.35;;;5.55;;
55539;SDS011;41384;51.418;7.286;2023-04-06T00:56:48;11.73;;;5.28;;
55539;SDS011;41384;51.418;7.286;2023-04-06T00:59:14;10.35;;;5.55;;
55539;SDS011;41384;51.418;7.286;2023-04-06T01:01:39;17.45;;;6.18;;
55539;SDS011;41384;51.418;7.286;2023-04-06T01:04:04;9.40;;;5.63;;
55539;SDS011;41384;51.418;7.286;2023-04-06T01:06:30;9.02;;;5.78;;
55539;SDS011;41384;51.418;7.286;2023-04-06T01:08:55;9.93;;;5.85;;
55539;SDS011;41384;51.418;7.286;2023-04-06T01:11:20;9.43;;;5.70;;
55539;SDS011;41384;51.418;7.286;2023-04-06T01:13:46;7.05;;;4.90;;
55539;SDS011;41384;51.418;7.286;2023-04-06T01:16:11;9.00;;;5.50;;
55539;SDS011;41384;51.418;7.286;2023-04-06T01:18:37;8.10;;;5.10;;
55539;SDS011;41384;51.418;7.286;2023-04-06T01:21:03;7.00;;;4.53;;
55539;SDS011;41384;51.418;7.286;2023-04-06T01:23:28;9.20;;;4.85;;
55539;SDS011;41384;51.418;7.286;2023-04-06T01:25:53;8.43;;;5.38;;
55539;SDS011;41384;51.418;7.286;2023-04-06T01:28:18;7.18;;;4.90;;
55539;SDS011;41384;51.418;7.286;2023-04-06T01:30:44;8.45;;;4.38;;
55539;SDS011;41384;51.418;7.286;2023-04-06T01:33:09;7.53;;;5.00;;
55539;SDS011;41384;51.418;7.286;2023-04-06T01:35:35;8.75;;;4.80;;
55539;SDS011;41384;51.418;7.286;2023-04-06T01:38:01;7.45;;;4.43;;
55539;SDS011;41384;51.418;7.286;2023-04-06T01:40:26;8.75;;;5.30;;
55539;SDS011;41384;51.418;7.286;2023-04-06T01:42:51;8.95;;;4.78;;
55539;SDS011;41384;51.418;7.286;2023-04-06T01:45:17;7.70;;;4.22;;
55539;SDS011;41384;51.418;7.286;2023-04-06T01:47:42;7.20;;;4.80;;
55539;SDS011;41384;51.418;7.286;2023-04-06T01:50:07;6.70;;;4.78;;
55539;SDS011;41384;51.418;7.286;2023-04-06T01:52:33;8.25;;;5.22;;
55539;SDS011;41384;51.418;7.286;2023-04-06T01:54:59;9.05;;;5.10;;
55539;SDS011;41384;51.418;7.286;2023-04-06T01:57:24;7.13;;;4.60;;
55539;SDS011;41384;51.418;7.286;2023-04-06T01:59:50;10.38;;;5.18;;
55539;SDS011;41384;51.418;7.286;2023-04-06T02:02:16;9.50;;;5.07;;
55539;SDS011;41384;51.418;7.286;2023-04-06T02:04:41;10.90;;;5.70;;
55539;SDS011;41384;51.418;7.286;2023-04-06T02:07:06;7.75;;;4.97;;
55539;SDS011;41384;51.418;7.286;2023-04-06T02:09:32;9.02;;;5.32;;
55539;SDS011;41384;51.418;7.286;2023-04-06T02:11:57;9.80;;;4.82;;
55539;SDS011;41384;51.418;7.286;2023-04-06T02:14:24;8.05;;;4.78;;
55539;SDS011;41384;51.418;7.286;2023-04-06T02:16:50;7.50;;;5.50;;
55539;SDS011;41384;51.418;7.286;2023-04-06T02:19:16;8.10;;;5.15;;
55539;SDS011;41384;51.418;7.286;2023-04-06T02:21:41;8.02;;;5.00;;
55539;SDS011;41384;51.418;7.286;2023-04-06T02:24:07;9.60;;;4.93;;
55539;SDS011;41384;51.418;7.286;2023-04-06T02:26:32;7.25;;;5.15;;
55539;SDS011;41384;51.418;7.286;2023-04-06T02:28:57;9.15;;;4.82;;
55539;SDS011;41384;51.418;7.286;2023-04-06T02:31:22;7.43;;;4.07;;
55539;SDS011;41384;51.418;7.286;2023-04-06T02:33:48;6.90;;;4.55;;
55539;SDS011;41384;51.418;7.286;2023-04-06T02:36:13;7.97;;;4.68;;
55539;SDS011;41384;51.418;7.286;2023-04-06T02:38:38;7.70;;;4.80;;
55539;SDS011;41384;51.418;7.286;2023-04-06T02:41:03;10.30;;;5.05;;
55539;SDS011;41384;51.418;7.286;2023-04-06T02:43:29;8.77;;;5.32;;
55539;SDS011;41384;51.418;7.286;2023-04-06T02:45:54;7.38;;;5.00;;
55539;SDS011;41384;51.418;7.286;2023-04-06T02:48:19;7.97;;;4.72;;
55539;SDS011;41384;51.418;7.286;2023-04-06T02:50:45;7.82;;;5.07;;
55539;SDS011;41384;51.418;7.286;2023-04-06T02:53:10;8.50;;;4.60;;
55539;SDS011;41384;51.418;7.286;2023-04-06T02:55:35;10.07;;;5.20;;
55539;SDS011;41384;51.418;7.286;2023-04-06T02:58:01;7.63;;;5.38;;
55539;SDS011;41384;51.418;7.286;2023-04-06T03:00:26;8.77;;;4.90;;
55539;SDS011;41384;51.418;7.286;2023-04-06T03:02:51;10.48;;;5.07;;
55539;SDS011;41384;51.418;7.286;2023-04-06T03:05:16;8.48;;;5.40;;
55539;SDS011;41384;51.418;7.286;2023-04-06T03:07:42;8.90;;;5.47;;
55539;SDS011;41384;51.418;7.286;2023-04-06T03:10:07;9.15;;;5.30;;
55539;SDS011;41384;51.418;7.286;2023-04-06T03:12:34;8.50;;;5.50;;
55539;SDS011;41384;51.418;7.286;2023-04-06T03:14:59;9.38;;;5.20;;
55539;SDS011;41384;51.418;7.286;2023-04-06T03:17:25;9.43;;;5.75;;
55539;SDS011;41384;51.418;7.286;2023-04-06T03:19:50;8.68;;;5.43;;
55539;SDS011;41384;51.418;7.286;2023-04-06T03:22:15;10.00;;;5.00;;
55539;SDS011;41384;51.418;7.286;2023-04-06T03:24:41;8.70;;;5.00;;
55539;SDS011;41384;51.418;7.286;2023-04-06T03:27:06;8.50;;;4.93;;
55539;SDS011;41384;51.418;7.286;2023-04-06T03:29:31;8.73;;;4.60;;
55539;SDS011;41384;51.418;7.286;2023-04-06T03:31:56;11.45;;;5.10;;
55539;SDS011;41384;51.418;7.286;2023-04-06T03:34:22;10.02;;;5.15;;
55539;SDS011;41384;51.418;7.286;2023-04-06T03:36:47;9.15;;;5.25;;
55539;SDS011;41384;51.418;7.286;2023-04-06T03:39:12;6.90;;;4.53;;
55539;SDS011;41384;51.418;7.286;2023-04-06T03:41:37;8.73;;;4.78;;
55539;SDS011;41384;51.418;7.286;2023-04-06T03:44:03;7.90;;;5.07;;
55539;SDS011;41384;51.418;7.286;2023-04-06T03:46:30;11.50;;;5.07;;
55539;SDS011;41384;51.418;7.286;2023-04-06T03:48:55;9.15;;;5.10;;
55539;SDS011;41384;51.418;7.286;2023-04-06T03:51:20;7.50;;;4.55;;
55539;SDS011;41384;51.418;7.286;2023-04-06T03:53:46;10.38;;;5.88;;
55539;SDS011;41384;51.418;7.286;2023-04-06T03:56:11;6.28;;;4.70;;
55539;SDS011;41384;51.418;7.286;2023-04-06T03:58:36;7.72;;;5.20;;
55539;SDS011;41384;51.418;7.286;2023-04-06T04:01:01;8.57;;;5.38;;
55539;SDS011;41384;51.418;7.286;2023-04-06T04:03:27;6.45;;;4.70;;
55539;SDS011;41384;51.418;7.286;2023-04-06T04:05:52;11.32;;;4.68;;
55539;SDS011;41384;51.418;7.286;2023-04-06T04:08:18;9.43;;;5.47;;
55539;SDS011;41384;51.418;7.286;2023-04-06T04:10:43;8.85;;;4.60;;
55539;SDS011;41384;51.418;7.286;2023-04-06T04:13:09;8.77;;;5.20;;
55539;SDS011;41384;51.418;7.286;2023-04-06T04:15:34;8.57;;;4.40;;
55539;SDS011;41384;51.418;7.286;2023-04-06T04:17:59;8.45;;;5.03;;
55539;SDS011;41384;51.418;7.286;2023-04-06T04:20:25;8.05;;;4.85;;
55539;SDS011;41384;51.418;7.286;2023-04-06T04:22:50;7.78;;;4.68;;
55539;SDS011;41384;51.418;7.286;2023-04-06T04:25:15;8.45;;;5.32;;
55539;SDS011;41384;51.418;7.286;2023-04-06T04:27:40;8.68;;;5.00;;
55539;SDS011;41384;51.418;7.286;2023-04-06T04:30:06;7.82;;;4.97;;
55539;SDS011;41384;51.418;7.286;2023-04-06T04:32:32;8.85;;;4.75;;
55539;SDS011;41384;51.418;7.286;2023-04-06T04:34:57;8.07;;;4.72;;
55539;SDS011;41384;51.418;7.286;2023-04-06T04:37:22;8.52;;;5.03;;
55539;SDS011;41384;51.418;7.286;2023-04-06T04:39:47;9.70;;;4.80;;
55539;SDS011;41384;51.418;7.286;2023-04-06T04:42:13;8.13;;;5.20;;
55539;SDS011;41384;51.418;7.286;2023-04-06T04:44:38;8.60;;;5.00;;
55539;SDS011;41384;51.418;7.286;2023-04-06T04:47:04;6.57;;;4.72;;
55539;SDS011;41384;51.418;7.286;2023-04-06T04:49:29;9.35;;;4.93;;
55539;SDS011;41384;51.418;7.286;2023-04-06T04:51:55;9.20;;;5.03;;
55539;SDS011;41384;51.418;7.286;2023-04-06T04:54:20;7.22;;;4.60;;
55539;SDS011;41384;51.418;7.286;2023-04-06T04:56:45;6.63;;;4.38;;
55539;SDS011;41384;51.418;7.286;2023-04-06T04:59:10;8.20;;;4.80;;
55539;SDS011;41384;51.418;7.286;2023-04-06T05:01:36;5.85;;;4.43;;
55539;SDS011;41384;51.418;7.286;2023-04-06T05:04:01;9.15;;;4.95;;
55539;SDS011;41384;51.418;7.286;2023-04-06T05:06:26;6.43;;;4.43;;
55539;SDS011;41384;51.418;7.286;2023-04-06T05:08:51;7.63;;;4.90;;
55539;SDS011;41384;51.418;7.286;2023-04-06T05:11:17;9.05;;;4.35;;
55539;SDS011;41384;51.418;7.286;2023-04-06T05:13:42;10.07;;;4.82;;
55539;SDS011;41384;51.418;7.286;2023-04-06T05:16:08;7.65;;;4.80;;
55539;SDS011;41384;51.418;7.286;2023-04-06T05:18:33;10.00;;;4.57;;
55539;SDS011;41384;51.418;7.286;2023-04-06T05:20:58;7.65;;;5.00;;
55539;SDS011;41384;51.418;7.286;2023-04-06T05:23:24;5.97;;;4.40;;
55539;SDS011;41384;51.418;7.286;2023-04-06T05:25:49;7.88;;;5.63;;
55539;SDS011;41384;51.418;7.286;2023-04-06T05:28:15;8.20;;;4.70;;
55539;SDS011;41384;51.418;7.286;2023-04-06T05:30:41;7.70;;;4.50;;
55539;SDS011;41384;51.418;7.286;2023-04-06T05:33:07;6.63;;;4.50;;
55539;SDS011;41384;51.418;7.286;2023-04-06T05:35:33;7.47;;;4.70;;
55539;SDS011;41384;51.418;7.286;2023-04-06T05:37:59;7.10;;;4.07;;
55539;SDS011;41384;51.418;7.286;2023-04-06T05:40:25;9.68;;;4.97;;
55539;SDS011;41384;51.418;7.286;2023-04-06T05:42:51;6.25;;;4.40;;
55539;SDS011;41384;51.418;7.286;2023-04-06T05:45:16;7.07;;;4.82;;
55539;SDS011;41384;51.418;7.286;2023-04-06T05:47:43;8.43;;;4.97;;
55539;SDS011;41384;51.418;7.286;2023-04-06T05:50:09;6.80;;;4.65;;
55539;SDS011;41384;51.418;7.286;2023-04-06T05:52:35;6.97;;;4.70;;
55539;SDS011;41384;51.418;7.286;2023-04-06T05:55:00;8.05;;;4.60;;
55539;SDS011;41384;51.418;7.286;2023-04-06T05:57:26;8.60;;;5.45;;
55539;SDS011;41384;51.418;7.286;2023-04-06T05:59:51;7.00;;;4.30;;
55539;SDS011;41384;51.418;7.286;2023-04-06T06:02:16;7.88;;;4.63;;
55539;SDS011;41384;51.418;7.286;2023-04-06T06:04:42;6.75;;;4.20;;
55539;SDS011;41384;51.418;7.286;2023-04-06T06:07:07;7.53;;;4.93;;
55539;SDS011;41384;51.418;7.286;2023-04-06T06:09:32;7.20;;;4.85;;
55539;SDS011;41384;51.418;7.286;2023-04-06T06:11:57;9.25;;;5.10;;
55539;SDS011;41384;51.418;7.286;2023-04-06T06:14:24;7.47;;;4.47;;
55539;SDS011;41384;51.418;7.286;2023-04-06T06:16:50;6.90;;;5.03;;
55539;SDS011;41384;51.418;7.286;2023-04-06T06:19:15;6.85;;;4.38;;
55539;SDS011;41384;51.418;7.286;2023-04-06T06:21:40;8.15;;;4.40;;
55539;SDS011;41384;51.418;7.286;2023-04-06T06:24:06;7.47;;;4.53;;
55539;SDS011;41384;51.418;7.286;2023-04-06T06:26:32;8.25;;;5.30;;
55539;SDS011;41384;51.418;7.286;2023-04-06T06:28:57;8.63;;;4.70;;
55539;SDS011;41384;51.418;7.286;2023-04-06T06:31:22;6.60;;;4.63;;
55539;SDS011;41384;51.418;7.286;2023-04-06T06:33:48;6.85;;;4.57;;
55539;SDS011;41384;51.418;7.286;2023-04-06T06:36:16;6.95;;;4.93;;
55539;SDS011;41384;51.418;7.286;2023-04-06T06:38:42;8.02;;;4.78;;
55539;SDS011;41384;51.418;7.286;2023-04-06T06:41:07;8.00;;;4.80;;
55539;SDS011;41384;51.418;7.286;2023-04-06T06:43:33;8.65;;;4.75;;
55539;SDS011;41384;51.418;7.286;2023-04-06T06:45:58;8.95;;;4.72;;
55539;SDS011;41384;51.418;7.286;2023-04-06T06:48:24;6.65;;;4.85;;
55539;SDS011;41384;51.418;7.286;2023-04-06T06:50:50;6.25;;;4.10;;
55539;SDS011;41384;51.418;7.286;2023-04-06T06:53:15;6.93;;;4.50;;
55539;SDS011;41384;51.418;7.286;2023-04-06T06:55:40;9.50;;;4.47;;
55539;SDS011;41384;51.418;7.286;2023-04-06T06:58:05;6.97;;;4.43;;
55539;SDS011;41384;51.418;7.286;2023-04-06T07:00:31;8.13;;;4.60;;
55539;SDS011;41384;51.418;7.286;2023-04-06T07:02:57;8.65;;;4.68;;
55539;SDS011;41384;51.418;7.286;2023-04-06T07:05:22;8.45;;;4.80;;
55539;SDS011;41384;51.418;7.286;2023-04-06T07:07:47;8.07;;;4.60;;
55539;SDS011;41384;51.418;7.286;2023-04-06T07:10:12;6.15;;;4.25;;
55539;SDS011;41384;51.418;7.286;2023-04-06T07:12:38;10.63;;;4.78;;
55539;SDS011;41384;51.418;7.286;2023-04-06T07:15:03;8.32;;;4.93;;
55539;SDS011;41384;51.418;7.286;2023-04-06T07:17:29;7.50;;;4.70;;
55539;SDS011;41384;51.418;7.286;2023-04-06T07:19:55;9.38;;;4.95;;
55539;SDS011;41384;51.418;7.286;2023-04-06T07:22:20;8.27;;;4.65;;
55539;SDS011;41384;51.418;7.286;2023-04-06T07:24:45;7.15;;;4.55;;
55539;SDS011;41384;51.418;7.286;2023-04-06T07:27:10;7.03;;;4.45;;
55539;SDS011;41384;51.418;7.286;2023-04-06T07:29:36;9.32;;;4.28;;
55539;SDS011;41384;51.418;7.286;2023-04-06T07:32:01;7.13;;;4.28;;
55539;SDS011;41384;51.418;7.286;2023-04-06T07:34:26;6.85;;;4.57;;
55539;SDS011;41384;51.418;7.286;2023-04-06T07:36:52;12.25;;;5.22;;
55539;SDS011;41384;51.418;7.286;2023-04-06T07:39:18;8.05;;;5.10;;
55539;SDS011;41384;51.418;7.286;2023-04-06T07:41:44;8.10;;;4.55;;
55539;SDS011;41384;51.418;7.286;2023-04-06T07:44:09;10.70;;;4.60;;
55539;SDS011;41384;51.418;7.286;2023-04-06T07:46:34;7.30;;;4.65;;
55539;SDS011;41384;51.418;7.286;2023-04-06T07:49:01;7.70;;;4.60;;
55539;SDS011;41384;51.418;7.286;2023-04-06T07:51:26;8.20;;;4.82;;
55539;SDS011;41384;51.418;7.286;2023-04-06T07:53:52;6.72;;;4.30;;
55539;SDS011;41384;51.418;7.286;2023-04-06T07:56:17;7.13;;;4.90;;
55539;SDS011;41384;51.418;7.286;2023-04-06T07:58:42;7.75;;;4.57;;
55539;SDS011;41384;51.418;7.286;2023-04-06T08:01:08;5.72;;;4.18;;
55539;SDS011;41384;51.418;7.286;2023-04-06T08:03:34;9.07;;;4.88;;
55539;SDS011;41384;51.418;7.286;2023-04-06T08:06:00;9.88;;;4.75;;
55539;SDS011;41384;51.418;7.286;2023-04-06T08:08:25;7.03;;;4.30;;
55539;SDS011;41384;51.418;7.286;2023-04-06T08:10:50;6.95;;;4.57;;
55539;SDS011;41384;51.418;7.286;2023-04-06T08:13:16;8.35;;;4.60;;
55539;SDS011;41384;51.418;7.286;2023-04-06T08:15:41;8.10;;;4.57;;
55539;SDS011;41384;51.418;7.286;2023-04-06T08:18:07;8.77;;;5.40;;
55539;SDS011;41384;51.418;7.286;2023-04-06T08:20:33;9.93;;;4.70;;
55539;SDS011;41384;51.418;7.286;2023-04-06T08:22:59;7.85;;;5.05;;
55539;SDS011;41384;51.418;7.286;2023-04-06T08:25:25;9.20;;;4.70;;
55539;SDS011;41384;51.418;7.286;2023-04-06T08:27:50;8.50;;;4.80;;
55539;SDS011;41384;51.418;7.286;2023-04-06T08:30:15;11.40;;;5.38;;
55539;SDS011;41384;51.418;7.286;2023-04-06T08:32:41;6.15;;;4.10;;
55539;SDS011;41384;51.418;7.286;2023-04-06T08:35:06;10.15;;;5.32;;
55539;SDS011;41384;51.418;7.286;2023-04-06T08:37:32;9.85;;;5.47;;
55539;SDS011;41384;51.418;7.286;2023-04-06T08:39:58;7.78;;;4.65;;
55539;SDS011;41384;51.418;7.286;2023-04-06T08:42:24;8.27;;;4.97;;
55539;SDS011;41384;51.418;7.286;2023-04-06T08:44:53;16.70;;;5.72;;
55539;SDS011;41384;51.418;7.286;2023-04-06T08:47:20;8.07;;;5.13;;
55539;SDS011;41384;51.418;7.286;2023-04-06T08:49:46;9.68;;;5.28;;
55539;SDS011;41384;51.418;7.286;2023-04-06T08:52:12;9.18;;;4.75;;
55539;SDS011;41384;51.418;7.286;2023-04-06T08:54:37;7.53;;;4.75;;
55539;SDS011;41384;51.418;7.286;2023-04-06T08:57:04;9.32;;;5.30;;
55539;SDS011;41384;51.418;7.286;2023-04-06T08:59:30;10.25;;;5.70;;
55539;SDS011;41384;51.418;7.286;2023-04-06T09:01:59;8.40;;;5.68;;
55539;SDS011;41384;51.418;7.286;2023-04-06T09:04:28;10.75;;;5.80;;
55539;SDS011;41384;51.418;7.286;2023-04-06T09:06:53;10.32;;;5.57;;
55539;SDS011;41384;51.418;7.286;2023-04-06T09:09:18;10.65;;;5.93;;
55539;SDS011;41384;51.418;7.286;2023-04-06T09:11:48;10.35;;;5.80;;
55539;SDS011;41384;51.418;7.286;2023-04-06T09:14:15;15.52;;;6.13;;
55539;SDS011;41384;51.418;7.286;2023-04-06T09:16:42;10.93;;;5.32;;
55539;SDS011;41384;51.418;7.286;2023-04-06T09:19:09;12.60;;;6.50;;
55539;SDS011;41384;51.418;7.286;2023-04-06T09:21:35;13.48;;;5.68;;
55539;SDS011;41384;51.418;7.286;2023-04-06T09:24:01;12.48;;;5.90;;
55539;SDS011;41384;51.418;7.286;2023-04-06T09:26:27;15.02;;;6.80;;
55539;SDS011;41384;51.418;7.286;2023-04-06T09:28:53;10.63;;;6.10;;
55539;SDS011;41384;51.418;7.286;2023-04-06T09:31:23;9.63;;;5.75;;
55539;SDS011;41384;51.418;7.286;2023-04-06T09:33:53;12.18;;;6.00;;
55539;SDS011;41384;51.418;7.286;2023-04-06T09:36:19;11.88;;;6.10;;
55539;SDS011;41384;51.418;7.286;2023-04-06T09:38:52;12.02;;;6.45;;
55539;SDS011;41384;51.418;7.286;2023-04-06T09:41:22;14.68;;;7.15;;
55539;SDS011;41384;51.418;7.286;2023-04-06T09:44:05;13.15;;;6.72;;
55539;SDS011;41384;51.418;7.286;2023-04-06T09:46:34;14.35;;;6.15;;
55539;SDS011;41384;51.418;7.286;2023-04-06T09:49:01;14.85;;;6.38;;
55539;SDS011;41384;51.418;7.286;2023-04-06T09:51:28;9.80;;;5.82;;
55539;SDS011;41384;51.418;7.286;2023-04-06T09:53:56;12.45;;;6.60;;
55539;SDS011;41384;51.418;7.286;2023-04-06T09:56:26;15.45;;;7.07;;
55539;SDS011;41384;51.418;7.286;2023-04-06T09:58:54;12.38;;;6.45;;
55539;SDS011;41384;51.418;7.286;2023-04-06T10:01:26;12.98;;;6.10;;
55539;SDS011;41384;51.418;7.286;2023-04-06T10:06:21;12.63;;;7.00;;
55539;SDS011;41384;51.418;7.286;2023-04-06T10:08:49;13.48;;;6.53;;
55539;SDS011;41384;51.418;7.286;2023-04-06T10:11:16;13.63;;;7.03;;
55539;SDS011;41384;51.418;7.286;2023-04-06T10:13:42;15.15;;;7.10;;
55539;SDS011;41384;51.418;7.286;2023-04-06T10:16:10;11.68;;;6.43;;
55539;SDS011;41384;51.418;7.286;2023-04-06T10:18:39;14.73;;;6.97;;
55539;SDS011;41384;51.418;7.286;2023-04-06T10:21:11;17.48;;;7.68;;
55539;SDS011;41384;51.418;7.286;2023-04-06T10:23:47;12.23;;;7.32;;
55539;SDS011;41384;51.418;7.286;2023-04-06T10:26:14;14.38;;;7.55;;
55539;SDS011;41384;51.418;7.286;2023-04-06T10:28:41;20.00;;;8.02;;
55539;SDS011;41384;51.418;7.286;2023-04-06T10:31:08;12.48;;;7.68;;
55539;SDS011;41384;51.418;7.286;2023-04-06T10:33:33;15.52;;;8.48;;
55539;SDS011;41384;51.418;7.286;2023-04-06T10:36:09;15.25;;;8.13;;
55539;SDS011;41384;51.418;7.286;2023-04-06T10:38:58;17.15;;;7.90;;
55539;SDS011;41384;51.418;7.286;2023-04-06T10:41:41;15.73;;;8.02;;
55539;SDS011;41384;51.418;7.286;2023-04-06T10:44:07;15.65;;;8.07;;
55539;SDS011;41384;51.418;7.286;2023-04-06T10:46:33;12.63;;;7.55;;
55539;SDS011;41384;51.418;7.286;2023-04-06T10:49:08;14.45;;;7.80;;
55539;SDS011;41384;51.418;7.286;2023-04-06T10:51:39;15.02;;;8.48;;
55539;SDS011;41384;51.418;7.286;2023-04-06T10:54:05;20.45;;;9.25;;
55539;SDS011;41384;51.418;7.286;2023-04-06T10:56:31;15.13;;;8.40;;
55539;SDS011;41384;51.418;7.286;2023-04-06T10:59:01;17.38;;;8.48;;
55539;SDS011;41384;51.418;7.286;2023-04-06T11:01:26;17.52;;;9.55;;
55539;SDS011;41384;51.418;7.286;2023-04-06T11:03:53;17.58;;;8.98;;
55539;SDS011;41384;51.418;7.286;2023-04-06T11:06:27;19.42;;;8.77;;
55539;SDS011;41384;51.418;7.286;2023-04-06T11:08:55;16.42;;;8.50;;
55539;SDS011;41384;51.418;7.286;2023-04-06T11:11:22;16.38;;;9.23;;
55539;SDS011;41384;51.418;7.286;2023-04-06T11:13:51;17.92;;;10.43;;
55539;SDS011;41384;51.418;7.286;2023-04-06T11:16:18;20.00;;;10.05;;
55539;SDS011;41384;51.418;7.286;2023-04-06T11:24:09;18.40;;;9.88;;
55539;SDS011;41384;51.418;7.286;2023-04-06T11:26:39;17.88;;;9.68;;
55539;SDS011;41384;51.418;7.286;2023-04-06T11:29:05;16.48;;;8.57;;
55539;SDS011;41384;51.418;7.286;2023-04-06T11:31:31;21.30;;;10.68;;
55539;SDS011;41384;51.418;7.286;2023-04-06T11:34:02;23.95;;;10.60;;
55539;SDS011;41384;51.418;7.286;2023-04-06T11:36:34;19.67;;;10.38;;
55539;SDS011;41384;51.418;7.286;2023-04-06T11:39:00;23.83;;;10.40;;
55539;SDS011;41384;51.418;7.286;2023-04-06T11:41:28;20.95;;;10.50;;
55539;SDS011;41384;51.418;7.286;2023-04-06T11:43:54;62.25;;;12.90;;
55539;SDS011;41384;51.418;7.286;2023-04-06T11:46:20;34.00;;;11.73;;
55539;SDS011;41384;51.418;7.286;2023-04-06T11:48:46;26.13;;;10.10;;
55539;SDS011;41384;51.418;7.286;2023-04-06T11:51:11;39.25;;;12.60;;
55539;SDS011;41384;51.418;7.286;2023-04-06T11:53:43;21.15;;;9.95;;
55539;SDS011;41384;51.418;7.286;2023-04-06T11:56:10;22.35;;;10.38;;
55539;SDS011;41384;51.418;7.286;2023-04-06T11:58:36;16.10;;;8.93;;
55539;SDS011;41384;51.418;7.286;2023-04-06T12:01:05;16.88;;;8.20;;
55539;SDS011;41384;51.418;7.286;2023-04-06T12:03:30;19.80;;;8.68;;
55539;SDS011;41384;51.418;7.286;2023-04-06T12:05:55;17.98;;;8.23;;
55539;SDS011;41384;51.418;7.286;2023-04-06T12:08:21;15.73;;;8.10;;
55539;SDS011;41384;51.418;7.286;2023-04-06T12:10:50;15.55;;;8.45;;
55539;SDS011;41384;51.418;7.286;2023-04-06T12:13:15;15.32;;;7.57;;
55539;SDS011;41384;51.418;7.286;2023-04-06T12:15:40;15.10;;;8.63;;
55539;SDS011;41384;51.418;7.286;2023-04-06T12:18:06;18.67;;;8.43;;
55539;SDS011;41384;51.418;7.286;2023-04-06T12:20:31;13.77;;;7.78;;
55539;SDS011;41384;51.418;7.286;2023-04-06T12:22:56;15.27;;;8.13;;
55539;SDS011;41384;51.418;7.286;2023-04-06T12:25:21;16.92;;;8.02;;
55539;SDS011;41384;51.418;7.286;2023-04-06T12:27:47;16.92;;;7.90;;
55539;SDS011;41384;51.418;7.286;2023-04-06T12:30:12;15.48;;;8.27;;
55539;SDS011;41384;51.418;7.286;2023-04-06T12:32:38;13.98;;;7.47;;
55539;SDS011;41384;51.418;7.286;2023-04-06T12:35:03;13.18;;;7.32;;
55539;SDS011;41384;51.418;7.286;2023-04-06T12:37:29;17.98;;;8.43;;
55539;SDS011;41384;51.418;7.286;2023-04-06T12:39:54;14.07;;;7.78;;
55539;SDS011;41384;51.418;7.286;2023-04-06T12:42:19;13.82;;;7.80;;
55539;SDS011;41384;51.418;7.286;2023-04-06T12:44:45;14.23;;;7.78;;
55539;SDS011;41384;51.418;7.286;2023-04-06T12:47:12;18.75;;;9.32;;
55539;SDS011;41384;51.418;7.286;2023-04-06T12:49:37;15.55;;;7.85;;
55539;SDS011;41384;51.418;7.286;2023-04-06T12:52:02;14.52;;;8.02;;
55539;SDS011;41384;51.418;7.286;2023-04-06T12:54:28;15.40;;;7.43;;
55539;SDS011;41384;51.418;7.286;2023-04-06T12:56:53;15.05;;;7.43;;
55539;SDS011;41384;51.418;7.286;2023-04-06T12:59:18;15.45;;;7.18;;
55539;SDS011;41384;51.418;7.286;2023-04-06T13:01:45;13.93;;;7.10;;
55539;SDS011;41384;51.418;7.286;2023-04-06T13:04:11;15.18;;;7.47;;
55539;SDS011;41384;51.418;7.286;2023-04-06T13:06:36;17.55;;;8.75;;
55539;SDS011;41384;51.418;7.286;2023-04-06T13:09:01;16.65;;;8.63;;
55539;SDS011;41384;51.418;7.286;2023-04-06T13:11:28;15.38;;;8.15;;
55539;SDS011;41384;51.418;7.286;2023-04-06T13:13:54;16.08;;;8.38;;
55539;SDS011;41384;51.418;7.286;2023-04-06T13:16:20;14.90;;;7.93;;
55539;SDS011;41384;51.418;7.286;2023-04-06T13:18:45;15.68;;;8.60;;
55539;SDS011;41384;51.418;7.286;2023-04-06T13:21:13;14.35;;;8.25;;
55539;SDS011;41384;51.418;7.286;2023-04-06T13:23:40;12.65;;;7.93;;
55539;SDS011;41384;51.418;7.286;2023-04-06T13:26:06;16.52;;;7.35;;
55539;SDS011;41384;51.418;7.286;2023-04-06T13:28:33;13.43;;;6.65;;
55539;SDS011;41384;51.418;7.286;2023-04-06T13:30:59;14.38;;;7.50;;
55539;SDS011;41384;51.418;7.286;2023-04-06T13:33:26;16.35;;;8.43;;
55539;SDS011;41384;51.418;7.286;2023-04-06T13:35:52;15.40;;;7.78;;
55539;SDS011;41384;51.418;7.286;2023-04-06T13:38:18;16.83;;;8.00;;
55539;SDS011;41384;51.418;7.286;2023-04-06T13:40:43;15.35;;;7.63;;
55539;SDS011;41384;51.418;7.286;2023-04-06T13:43:09;14.38;;;7.25;;
55539;SDS011;41384;51.418;7.286;2023-04-06T13:45:34;15.70;;;8.35;;
55539;SDS011;41384;51.418;7.286;2023-04-06T13:47:59;13.18;;;8.45;;
55539;SDS011;41384;51.418;7.286;2023-04-06T13:50:25;14.20;;;7.68;;
55539;SDS011;41384;51.418;7.286;2023-04-06T13:52:51;14.40;;;8.18;;
55539;SDS011;41384;51.418;7.286;2023-04-06T13:55:17;13.65;;;7.38;;
55539;SDS011;41384;51.418;7.286;2023-04-06T13:57:42;16.30;;;7.82;;
55539;SDS011;41384;51.418;7.286;2023-04-06T14:00:07;13.80;;;8.05;;
55539;SDS011;41384;51.418;7.286;2023-04-06T14:02:34;14.68;;;7.63;;
55539;SDS011;41384;51.418;7.286;2023-04-06T14:04:59;15.07;;;8.30;;
55539;SDS011;41384;51.418;7.286;2023-04-06T14:07:25;14.82;;;7.95;;
55539;SDS011;41384;51.418;7.286;2023-04-06T14:09:50;15.27;;;7.65;;
55539;SDS011;41384;51.418;7.286;2023-04-06T14:12:15;15.73;;;7.82;;
55539;SDS011;41384;51.418;7.286;2023-04-06T14:14:40;11.52;;;6.50;;
55539;SDS011;41384;51.418;7.286;2023-04-06T14:17:06;12.27;;;5.97;;
55539;SDS011;41384;51.418;7.286;2023-04-06T14:19:31;11.55;;;5.80;;
55539;SDS011;41384;51.418;7.286;2023-04-06T14:21:56;9.02;;;5.57;;
55539;SDS011;41384;51.418;7.286;2023-04-06T14:24:22;11.82;;;5.55;;
55539;SDS011;41384;51.418;7.286;2023-04-06T14:26:47;10.05;;;5.85;;
55539;SDS011;41384;51.418;7.286;2023-04-06T14:29:13;14.40;;;6.85;;
55539;SDS011;41384;51.418;7.286;2023-04-06T14:31:38;13.82;;;6.95;;
55539;SDS011;41384;51.418;7.286;2023-04-06T14:34:03;10.70;;;6.03;;
55539;SDS011;41384;51.418;7.286;2023-04-06T14:36:30;13.93;;;6.72;;
55539;SDS011;41384;51.418;7.286;2023-04-06T14:39:01;11.82;;;7.05;;
55539;SDS011;41384;51.418;7.286;2023-04-06T14:41:29;15.75;;;7.03;;